Bloomfield Township, Michigan
Current Conditions -  °F | °C
As of 3:15 PM on Monday 24 Nov 2014 (Local Time) from KVLL Reporting Station
Overcast Overcast  
Wind Chill: 36°   Ceiling: 2700
Heat Index: 46°   Visibility: 10mi
Dew Point: 34°   Wind: 32mph
Humidity: 62%   Direction: 230°SW
Pressure: 29.33"   Gusts: 45mph
Location:  42.5858°N, 83.2941°W
Report Text: KVLL 242015Z AUTO 23028G39KT 10SM OVC027 08/01 A2933 RMK AO2 T00770009
Loading
Personal Weather Stations






























Interactive Weather Map New forecast layout! Learn more

10-Day Weather Forecast

Advertisements
Track Severe Weather on mobile